sensor_id;sensor_type;location;lat;lon;timestamp;P1;durP1;ratioP1;P2;durP2;ratioP2
61206;SDS011;47070;49.212;8.084;2022-08-19T00:00:39;14.20;;;10.63;;
61206;SDS011;47070;49.212;8.084;2022-08-19T00:04:39;15.68;;;11.82;;
61206;SDS011;47070;49.212;8.084;2022-08-19T00:08:40;15.85;;;11.73;;
61206;SDS011;47070;49.212;8.084;2022-08-19T00:12:41;15.90;;;11.80;;
61206;SDS011;47070;49.212;8.084;2022-08-19T00:16:43;14.57;;;10.82;;
61206;SDS011;47070;49.212;8.084;2022-08-19T00:20:45;13.77;;;10.70;;
61206;SDS011;47070;49.212;8.084;2022-08-19T00:24:46;14.60;;;11.70;;
61206;SDS011;47070;49.212;8.084;2022-08-19T00:28:46;14.48;;;11.95;;
61206;SDS011;47070;49.212;8.084;2022-08-19T00:32:47;14.20;;;11.13;;
61206;SDS011;47070;49.212;8.084;2022-08-19T00:36:48;15.48;;;11.05;;
61206;SDS011;47070;49.212;8.084;2022-08-19T00:40:49;15.80;;;11.80;;
61206;SDS011;47070;49.212;8.084;2022-08-19T00:44:50;14.73;;;11.60;;
61206;SDS011;47070;49.212;8.084;2022-08-19T00:48:50;15.60;;;11.10;;
61206;SDS011;47070;49.212;8.084;2022-08-19T00:52:51;14.82;;;10.55;;
61206;SDS011;47070;49.212;8.084;2022-08-19T00:56:52;13.82;;;11.13;;
61206;SDS011;47070;49.212;8.084;2022-08-19T01:00:53;15.50;;;10.30;;
61206;SDS011;47070;49.212;8.084;2022-08-19T01:04:54;17.27;;;11.55;;
61206;SDS011;47070;49.212;8.084;2022-08-19T01:08:55;15.82;;;11.30;;
61206;SDS011;47070;49.212;8.084;2022-08-19T01:12:57;16.45;;;11.88;;
61206;SDS011;47070;49.212;8.084;2022-08-19T01:16:59;14.38;;;10.90;;
61206;SDS011;47070;49.212;8.084;2022-08-19T01:21:02;14.02;;;11.15;;
61206;SDS011;47070;49.212;8.084;2022-08-19T01:25:09;13.55;;;10.35;;
61206;SDS011;47070;49.212;8.084;2022-08-19T01:29:10;13.73;;;11.02;;
61206;SDS011;47070;49.212;8.084;2022-08-19T01:33:11;13.25;;;10.82;;
61206;SDS011;47070;49.212;8.084;2022-08-19T01:37:12;15.68;;;10.40;;
61206;SDS011;47070;49.212;8.084;2022-08-19T01:41:14;14.20;;;11.32;;
61206;SDS011;47070;49.212;8.084;2022-08-19T01:45:18;14.65;;;10.48;;
61206;SDS011;47070;49.212;8.084;2022-08-19T01:49:21;15.10;;;10.98;;
61206;SDS011;47070;49.212;8.084;2022-08-19T01:53:23;14.93;;;11.02;;
61206;SDS011;47070;49.212;8.084;2022-08-19T01:57:23;15.07;;;11.75;;
61206;SDS011;47070;49.212;8.084;2022-08-19T02:01:24;13.98;;;11.02;;
61206;SDS011;47070;49.212;8.084;2022-08-19T02:05:24;14.82;;;11.18;;
61206;SDS011;47070;49.212;8.084;2022-08-19T02:09:25;14.10;;;11.25;;
61206;SDS011;47070;49.212;8.084;2022-08-19T02:13:26;17.85;;;13.38;;
61206;SDS011;47070;49.212;8.084;2022-08-19T02:17:27;15.55;;;12.88;;
61206;SDS011;47070;49.212;8.084;2022-08-19T02:21:28;21.00;;;12.73;;
61206;SDS011;47070;49.212;8.084;2022-08-19T02:25:29;15.40;;;12.63;;
61206;SDS011;47070;49.212;8.084;2022-08-19T02:29:30;16.73;;;12.52;;
61206;SDS011;47070;49.212;8.084;2022-08-19T02:33:30;16.92;;;12.80;;
61206;SDS011;47070;49.212;8.084;2022-08-19T02:37:31;19.17;;;12.32;;
61206;SDS011;47070;49.212;8.084;2022-08-19T02:41:50;15.30;;;12.52;;
61206;SDS011;47070;49.212;8.084;2022-08-19T02:45:51;16.73;;;12.88;;
61206;SDS011;47070;49.212;8.084;2022-08-19T02:49:52;16.65;;;12.27;;
61206;SDS011;47070;49.212;8.084;2022-08-19T02:53:53;15.60;;;11.73;;
61206;SDS011;47070;49.212;8.084;2022-08-19T02:57:54;14.45;;;11.98;;
61206;SDS011;47070;49.212;8.084;2022-08-19T03:01:54;14.40;;;11.35;;
61206;SDS011;47070;49.212;8.084;2022-08-19T03:10:06;15.50;;;12.63;;
61206;SDS011;47070;49.212;8.084;2022-08-19T03:14:08;17.95;;;12.50;;
61206;SDS011;47070;49.212;8.084;2022-08-19T03:18:09;15.77;;;13.25;;
61206;SDS011;47070;49.212;8.084;2022-08-19T03:22:10;15.43;;;12.60;;
61206;SDS011;47070;49.212;8.084;2022-08-19T03:26:10;16.52;;;13.07;;
61206;SDS011;47070;49.212;8.084;2022-08-19T03:30:11;19.02;;;12.52;;
61206;SDS011;47070;49.212;8.084;2022-08-19T03:34:13;13.85;;;11.32;;
61206;SDS011;47070;49.212;8.084;2022-08-19T03:38:17;13.77;;;11.40;;
61206;SDS011;47070;49.212;8.084;2022-08-19T03:42:17;13.88;;;11.38;;
61206;SDS011;47070;49.212;8.084;2022-08-19T03:46:19;13.45;;;11.07;;
61206;SDS011;47070;49.212;8.084;2022-08-19T03:50:21;11.77;;;10.50;;
61206;SDS011;47070;49.212;8.084;2022-08-19T03:54:22;11.50;;;9.52;;
61206;SDS011;47070;49.212;8.084;2022-08-19T03:58:24;13.88;;;10.43;;
61206;SDS011;47070;49.212;8.084;2022-08-19T04:02:25;10.77;;;8.38;;
61206;SDS011;47070;49.212;8.084;2022-08-19T04:06:27;11.85;;;8.65;;
61206;SDS011;47070;49.212;8.084;2022-08-19T04:10:30;13.35;;;9.85;;
61206;SDS011;47070;49.212;8.084;2022-08-19T04:14:31;16.08;;;10.23;;
61206;SDS011;47070;49.212;8.084;2022-08-19T04:18:33;11.95;;;9.50;;
61206;SDS011;47070;49.212;8.084;2022-08-19T04:22:34;14.07;;;9.38;;
61206;SDS011;47070;49.212;8.084;2022-08-19T04:26:35;10.60;;;8.05;;
61206;SDS011;47070;49.212;8.084;2022-08-19T04:30:38;10.70;;;9.27;;
61206;SDS011;47070;49.212;8.084;2022-08-19T04:34:40;9.40;;;7.95;;
61206;SDS011;47070;49.212;8.084;2022-08-19T04:38:42;9.52;;;7.40;;
61206;SDS011;47070;49.212;8.084;2022-08-19T04:42:43;11.55;;;8.55;;
61206;SDS011;47070;49.212;8.084;2022-08-19T04:46:44;11.43;;;7.88;;
61206;SDS011;47070;49.212;8.084;2022-08-19T04:50:46;10.60;;;8.27;;
61206;SDS011;47070;49.212;8.084;2022-08-19T04:54:48;10.75;;;7.35;;
61206;SDS011;47070;49.212;8.084;2022-08-19T04:58:49;10.23;;;8.05;;
61206;SDS011;47070;49.212;8.084;2022-08-19T05:02:52;10.75;;;8.27;;
61206;SDS011;47070;49.212;8.084;2022-08-19T05:06:53;9.65;;;8.05;;
61206;SDS011;47070;49.212;8.084;2022-08-19T05:10:54;10.32;;;7.90;;
61206;SDS011;47070;49.212;8.084;2022-08-19T05:14:54;11.00;;;8.52;;
61206;SDS011;47070;49.212;8.084;2022-08-19T05:18:56;10.50;;;7.97;;
61206;SDS011;47070;49.212;8.084;2022-08-19T05:23:15;8.85;;;7.95;;
61206;SDS011;47070;49.212;8.084;2022-08-19T05:27:16;8.85;;;6.72;;
61206;SDS011;47070;49.212;8.084;2022-08-19T05:31:17;7.32;;;5.80;;
61206;SDS011;47070;49.212;8.084;2022-08-19T05:35:18;9.45;;;7.63;;
61206;SDS011;47070;49.212;8.084;2022-08-19T05:39:20;10.20;;;7.78;;
61206;SDS011;47070;49.212;8.084;2022-08-19T05:43:20;10.13;;;7.65;;
61206;SDS011;47070;49.212;8.084;2022-08-19T05:47:21;8.27;;;7.10;;
61206;SDS011;47070;49.212;8.084;2022-08-19T05:51:22;7.63;;;6.82;;
61206;SDS011;47070;49.212;8.084;2022-08-19T05:55:23;12.73;;;7.32;;
61206;SDS011;47070;49.212;8.084;2022-08-19T05:59:23;11.77;;;7.72;;
61206;SDS011;47070;49.212;8.084;2022-08-19T06:03:24;9.27;;;7.10;;
61206;SDS011;47070;49.212;8.084;2022-08-19T06:07:24;7.80;;;7.00;;
61206;SDS011;47070;49.212;8.084;2022-08-19T06:11:38;9.20;;;7.43;;
61206;SDS011;47070;49.212;8.084;2022-08-19T06:15:40;6.97;;;6.28;;
61206;SDS011;47070;49.212;8.084;2022-08-19T06:19:44;8.50;;;6.85;;
61206;SDS011;47070;49.212;8.084;2022-08-19T06:23:44;7.85;;;6.78;;
61206;SDS011;47070;49.212;8.084;2022-08-19T06:27:47;7.60;;;6.13;;
61206;SDS011;47070;49.212;8.084;2022-08-19T06:31:48;7.47;;;6.75;;
61206;SDS011;47070;49.212;8.084;2022-08-19T06:35:50;8.23;;;6.65;;
61206;SDS011;47070;49.212;8.084;2022-08-19T06:39:51;8.32;;;6.25;;
61206;SDS011;47070;49.212;8.084;2022-08-19T06:43:52;8.45;;;6.47;;
61206;SDS011;47070;49.212;8.084;2022-08-19T06:47:53;11.15;;;6.75;;
61206;SDS011;47070;49.212;8.084;2022-08-19T06:51:55;8.85;;;6.47;;
61206;SDS011;47070;49.212;8.084;2022-08-19T06:55:57;10.48;;;6.85;;
61206;SDS011;47070;49.212;8.084;2022-08-19T07:00:03;7.82;;;6.95;;
61206;SDS011;47070;49.212;8.084;2022-08-19T07:04:05;8.15;;;6.47;;
61206;SDS011;47070;49.212;8.084;2022-08-19T07:08:08;8.23;;;6.80;;
61206;SDS011;47070;49.212;8.084;2022-08-19T07:12:10;11.00;;;6.18;;
61206;SDS011;47070;49.212;8.084;2022-08-19T07:16:14;7.90;;;6.40;;
61206;SDS011;47070;49.212;8.084;2022-08-19T07:20:16;7.32;;;6.50;;
61206;SDS011;47070;49.212;8.084;2022-08-19T07:24:17;7.15;;;5.78;;
61206;SDS011;47070;49.212;8.084;2022-08-19T07:28:18;8.93;;;6.75;;
61206;SDS011;47070;49.212;8.084;2022-08-19T07:32:18;6.80;;;5.53;;
61206;SDS011;47070;49.212;8.084;2022-08-19T07:36:20;7.68;;;6.32;;
61206;SDS011;47070;49.212;8.084;2022-08-19T07:40:22;8.07;;;6.07;;
61206;SDS011;47070;49.212;8.084;2022-08-19T07:44:23;13.38;;;7.05;;
61206;SDS011;47070;49.212;8.084;2022-08-19T07:48:25;8.07;;;6.57;;
61206;SDS011;47070;49.212;8.084;2022-08-19T07:52:27;8.80;;;6.53;;
61206;SDS011;47070;49.212;8.084;2022-08-19T07:56:28;8.00;;;6.22;;
61206;SDS011;47070;49.212;8.084;2022-08-19T08:00:28;5.68;;;4.55;;
61206;SDS011;47070;49.212;8.084;2022-08-19T08:04:29;6.03;;;5.32;;
61206;SDS011;47070;49.212;8.084;2022-08-19T08:08:48;9.07;;;6.88;;
61206;SDS011;47070;49.212;8.084;2022-08-19T08:13:07;7.57;;;6.63;;
61206;SDS011;47070;49.212;8.084;2022-08-19T08:17:08;8.02;;;6.22;;
61206;SDS011;47070;49.212;8.084;2022-08-19T08:21:09;7.10;;;6.40;;
61206;SDS011;47070;49.212;8.084;2022-08-19T08:25:16;5.68;;;5.03;;
61206;SDS011;47070;49.212;8.084;2022-08-19T08:29:20;6.07;;;5.47;;
61206;SDS011;47070;49.212;8.084;2022-08-19T08:33:21;7.75;;;7.03;;
61206;SDS011;47070;49.212;8.084;2022-08-19T08:37:23;10.45;;;6.40;;
61206;SDS011;47070;49.212;8.084;2022-08-19T08:41:57;7.75;;;6.43;;
61206;SDS011;47070;49.212;8.084;2022-08-19T08:46:02;7.38;;;5.38;;
61206;SDS011;47070;49.212;8.084;2022-08-19T08:50:06;7.88;;;5.95;;
61206;SDS011;47070;49.212;8.084;2022-08-19T08:54:15;8.68;;;5.53;;
61206;SDS011;47070;49.212;8.084;2022-08-19T08:58:27;8.82;;;6.15;;
61206;SDS011;47070;49.212;8.084;2022-08-19T09:02:33;5.10;;;4.57;;
61206;SDS011;47070;49.212;8.084;2022-08-19T09:06:44;4.85;;;4.45;;
61206;SDS011;47070;49.212;8.084;2022-08-19T09:10:55;7.68;;;5.03;;
61206;SDS011;47070;49.212;8.084;2022-08-19T09:15:03;6.57;;;5.97;;
61206;SDS011;47070;49.212;8.084;2022-08-19T09:19:07;6.43;;;5.15;;
61206;SDS011;47070;49.212;8.084;2022-08-19T09:23:10;5.30;;;4.38;;
61206;SDS011;47070;49.212;8.084;2022-08-19T09:27:10;5.82;;;5.13;;
61206;SDS011;47070;49.212;8.084;2022-08-19T09:31:12;6.32;;;5.22;;
61206;SDS011;47070;49.212;8.084;2022-08-19T09:35:14;5.50;;;4.93;;
61206;SDS011;47070;49.212;8.084;2022-08-19T09:39:14;7.00;;;5.35;;
61206;SDS011;47070;49.212;8.084;2022-08-19T09:43:15;8.50;;;6.00;;
61206;SDS011;47070;49.212;8.084;2022-08-19T09:47:15;6.25;;;4.93;;
61206;SDS011;47070;49.212;8.084;2022-08-19T09:51:17;6.70;;;6.00;;
61206;SDS011;47070;49.212;8.084;2022-08-19T09:55:22;5.32;;;4.80;;
61206;SDS011;47070;49.212;8.084;2022-08-19T09:59:23;4.78;;;4.30;;
61206;SDS011;47070;49.212;8.084;2022-08-19T10:03:24;5.72;;;4.80;;
61206;SDS011;47070;49.212;8.084;2022-08-19T10:07:25;5.38;;;4.88;;
61206;SDS011;47070;49.212;8.084;2022-08-19T10:11:26;6.25;;;5.65;;
61206;SDS011;47070;49.212;8.084;2022-08-19T10:15:27;6.05;;;5.53;;
61206;SDS011;47070;49.212;8.084;2022-08-19T10:19:28;6.82;;;4.55;;
61206;SDS011;47070;49.212;8.084;2022-08-19T10:23:32;4.10;;;3.67;;
61206;SDS011;47070;49.212;8.084;2022-08-19T10:27:32;6.90;;;4.57;;
61206;SDS011;47070;49.212;8.084;2022-08-19T10:31:33;7.50;;;4.60;;
61206;SDS011;47070;49.212;8.084;2022-08-19T10:35:34;5.03;;;4.60;;
61206;SDS011;47070;49.212;8.084;2022-08-19T10:39:36;4.35;;;3.95;;
61206;SDS011;47070;49.212;8.084;2022-08-19T10:43:37;6.18;;;5.13;;
61206;SDS011;47070;49.212;8.084;2022-08-19T10:47:38;4.43;;;4.03;;
61206;SDS011;47070;49.212;8.084;2022-08-19T10:51:39;6.72;;;4.35;;
61206;SDS011;47070;49.212;8.084;2022-08-19T10:55:59;6.95;;;4.95;;
61206;SDS011;47070;49.212;8.084;2022-08-19T11:00:21;6.07;;;5.15;;
61206;SDS011;47070;49.212;8.084;2022-08-19T11:04:23;4.00;;;3.60;;
61206;SDS011;47070;49.212;8.084;2022-08-19T11:08:23;5.57;;;4.28;;
61206;SDS011;47070;49.212;8.084;2022-08-19T11:12:24;4.43;;;4.03;;
61206;SDS011;47070;49.212;8.084;2022-08-19T11:16:25;4.00;;;3.63;;
61206;SDS011;47070;49.212;8.084;2022-08-19T11:20:29;3.92;;;3.55;;
61206;SDS011;47070;49.212;8.084;2022-08-19T11:24:30;4.47;;;4.07;;
61206;SDS011;47070;49.212;8.084;2022-08-19T11:28:31;4.40;;;4.00;;
61206;SDS011;47070;49.212;8.084;2022-08-19T11:32:32;4.53;;;4.07;;
61206;SDS011;47070;49.212;8.084;2022-08-19T11:36:33;3.70;;;3.40;;
61206;SDS011;47070;49.212;8.084;2022-08-19T11:40:38;3.95;;;3.65;;
61206;SDS011;47070;49.212;8.084;2022-08-19T11:44:40;4.97;;;4.45;;
61206;SDS011;47070;49.212;8.084;2022-08-19T11:48:40;4.30;;;3.90;;
61206;SDS011;47070;49.212;8.084;2022-08-19T11:52:41;3.63;;;3.33;;
61206;SDS011;47070;49.212;8.084;2022-08-19T11:56:43;3.10;;;2.80;;
61206;SDS011;47070;49.212;8.084;2022-08-19T12:00:45;3.20;;;2.90;;
61206;SDS011;47070;49.212;8.084;2022-08-19T12:04:46;2.80;;;2.60;;
61206;SDS011;47070;49.212;8.084;2022-08-19T12:08:47;2.97;;;2.33;;
61206;SDS011;47070;49.212;8.084;2022-08-19T12:12:47;2.65;;;2.45;;
61206;SDS011;47070;49.212;8.084;2022-08-19T12:16:48;2.22;;;2.13;;
61206;SDS011;47070;49.212;8.084;2022-08-19T12:20:49;2.50;;;2.30;;
61206;SDS011;47070;49.212;8.084;2022-08-19T12:24:51;2.83;;;2.53;;
61206;SDS011;47070;49.212;8.084;2022-08-19T12:28:53;2.60;;;2.40;;
61206;SDS011;47070;49.212;8.084;2022-08-19T12:32:54;2.60;;;2.40;;
61206;SDS011;47070;49.212;8.084;2022-08-19T12:36:55;8.32;;;2.95;;
61206;SDS011;47070;49.212;8.084;2022-08-19T12:40:57;2.50;;;2.30;;
61206;SDS011;47070;49.212;8.084;2022-08-19T12:44:58;3.15;;;2.60;;
61206;SDS011;47070;49.212;8.084;2022-08-19T12:48:59;3.20;;;2.90;;
61206;SDS011;47070;49.212;8.084;2022-08-19T12:52:59;2.47;;;2.25;;
61206;SDS011;47070;49.212;8.084;2022-08-19T12:56:59;2.53;;;2.33;;
61206;SDS011;47070;49.212;8.084;2022-08-19T13:01:07;2.47;;;2.28;;
61206;SDS011;47070;49.212;8.084;2022-08-19T13:05:13;2.72;;;2.53;;
61206;SDS011;47070;49.212;8.084;2022-08-19T13:09:15;2.78;;;2.50;;
61206;SDS011;47070;49.212;8.084;2022-08-19T13:13:16;2.60;;;2.40;;
61206;SDS011;47070;49.212;8.084;2022-08-19T13:17:16;3.10;;;2.80;;
61206;SDS011;47070;49.212;8.084;2022-08-19T13:21:18;3.08;;;2.78;;
61206;SDS011;47070;49.212;8.084;2022-08-19T13:25:20;4.22;;;2.33;;
61206;SDS011;47070;49.212;8.084;2022-08-19T13:29:21;2.30;;;2.10;;
61206;SDS011;47070;49.212;8.084;2022-08-19T13:33:40;2.30;;;2.20;;
61206;SDS011;47070;49.212;8.084;2022-08-19T13:37:41;1.95;;;1.85;;
61206;SDS011;47070;49.212;8.084;2022-08-19T13:41:45;2.55;;;2.35;;
61206;SDS011;47070;49.212;8.084;2022-08-19T13:45:50;2.75;;;2.55;;
61206;SDS011;47070;49.212;8.084;2022-08-19T13:49:55;2.00;;;1.90;;
61206;SDS011;47070;49.212;8.084;2022-08-19T13:53:55;2.40;;;2.20;;
61206;SDS011;47070;49.212;8.084;2022-08-19T13:57:57;3.03;;;2.83;;
61206;SDS011;47070;49.212;8.084;2022-08-19T14:01:59;2.33;;;2.13;;
61206;SDS011;47070;49.212;8.084;2022-08-19T14:06:00;2.80;;;2.60;;
61206;SDS011;47070;49.212;8.084;2022-08-19T14:10:02;3.03;;;2.72;;
61206;SDS011;47070;49.212;8.084;2022-08-19T14:14:04;2.50;;;2.30;;
61206;SDS011;47070;49.212;8.084;2022-08-19T14:18:04;3.08;;;2.78;;
61206;SDS011;47070;49.212;8.084;2022-08-19T14:22:05;3.38;;;2.90;;
61206;SDS011;47070;49.212;8.084;2022-08-19T14:26:07;3.13;;;2.70;;
61206;SDS011;47070;49.212;8.084;2022-08-19T14:30:10;2.90;;;2.70;;
61206;SDS011;47070;49.212;8.084;2022-08-19T14:34:12;2.78;;;2.38;;
61206;SDS011;47070;49.212;8.084;2022-08-19T14:38:16;2.50;;;2.30;;
61206;SDS011;47070;49.212;8.084;2022-08-19T14:42:18;2.80;;;2.60;;
61206;SDS011;47070;49.212;8.084;2022-08-19T14:46:20;2.65;;;2.45;;
61206;SDS011;47070;49.212;8.084;2022-08-19T14:50:22;2.75;;;2.55;;
61206;SDS011;47070;49.212;8.084;2022-08-19T14:54:22;2.90;;;2.70;;
61206;SDS011;47070;49.212;8.084;2022-08-19T14:58:23;2.92;;;2.67;;
61206;SDS011;47070;49.212;8.084;2022-08-19T15:02:24;2.13;;;1.98;;
61206;SDS011;47070;49.212;8.084;2022-08-19T15:06:24;2.97;;;2.72;;
61206;SDS011;47070;49.212;8.084;2022-08-19T15:10:26;2.63;;;2.33;;
61206;SDS011;47070;49.212;8.084;2022-08-19T15:14:27;2.20;;;2.00;;
61206;SDS011;47070;49.212;8.084;2022-08-19T15:18:33;2.10;;;1.90;;
61206;SDS011;47070;49.212;8.084;2022-08-19T15:22:34;2.20;;;2.00;;
61206;SDS011;47070;49.212;8.084;2022-08-19T15:26:35;2.08;;;1.90;;
61206;SDS011;47070;49.212;8.084;2022-08-19T15:30:36;2.88;;;2.28;;
61206;SDS011;47070;49.212;8.084;2022-08-19T15:34:38;2.78;;;2.55;;
61206;SDS011;47070;49.212;8.084;2022-08-19T15:38:38;1.95;;;1.85;;
61206;SDS011;47070;49.212;8.084;2022-08-19T15:42:41;2.97;;;2.30;;
61206;SDS011;47070;49.212;8.084;2022-08-19T15:46:43;2.75;;;2.55;;
61206;SDS011;47070;49.212;8.084;2022-08-19T15:50:45;1.83;;;1.73;;
61206;SDS011;47070;49.212;8.084;2022-08-19T15:54:45;3.70;;;2.88;;
61206;SDS011;47070;49.212;8.084;2022-08-19T15:58:46;2.67;;;2.47;;
61206;SDS011;47070;49.212;8.084;2022-08-19T16:03:05;2.80;;;2.60;;
61206;SDS011;47070;49.212;8.084;2022-08-19T16:07:24;2.00;;;1.80;;
61206;SDS011;47070;49.212;8.084;2022-08-19T16:11:26;2.53;;;2.33;;
61206;SDS011;47070;49.212;8.084;2022-08-19T16:15:29;3.10;;;2.25;;
61206;SDS011;47070;49.212;8.084;2022-08-19T16:19:29;4.50;;;2.30;;
61206;SDS011;47070;49.212;8.084;2022-08-19T16:23:33;5.20;;;3.25;;
61206;SDS011;47070;49.212;8.084;2022-08-19T16:27:34;3.28;;;2.97;;
61206;SDS011;47070;49.212;8.084;2022-08-19T16:31:35;3.47;;;3.17;;
61206;SDS011;47070;49.212;8.084;2022-08-19T16:35:36;2.95;;;2.75;;
61206;SDS011;47070;49.212;8.084;2022-08-19T16:39:37;2.92;;;2.72;;
61206;SDS011;47070;49.212;8.084;2022-08-19T16:43:38;4.03;;;2.78;;
61206;SDS011;47070;49.212;8.084;2022-08-19T16:47:39;3.58;;;2.67;;
61206;SDS011;47070;49.212;8.084;2022-08-19T16:51:40;2.65;;;2.45;;
61206;SDS011;47070;49.212;8.084;2022-08-19T16:55:41;4.90;;;2.50;;
61206;SDS011;47070;49.212;8.084;2022-08-19T16:59:42;2.67;;;2.47;;
61206;SDS011;47070;49.212;8.084;2022-08-19T17:03:43;4.47;;;2.65;;
61206;SDS011;47070;49.212;8.084;2022-08-19T17:07:44;2.63;;;2.33;;
61206;SDS011;47070;49.212;8.084;2022-08-19T17:11:44;2.40;;;2.13;;
61206;SDS011;47070;49.212;8.084;2022-08-19T17:15:45;2.05;;;1.83;;
61206;SDS011;47070;49.212;8.084;2022-08-19T17:19:46;3.30;;;2.85;;
61206;SDS011;47070;49.212;8.084;2022-08-19T17:23:46;2.45;;;2.28;;
61206;SDS011;47070;49.212;8.084;2022-08-19T17:27:48;2.60;;;2.38;;
61206;SDS011;47070;49.212;8.084;2022-08-19T17:31:50;2.45;;;2.25;;
61206;SDS011;47070;49.212;8.084;2022-08-19T17:35:51;2.30;;;2.13;;
61206;SDS011;47070;49.212;8.084;2022-08-19T17:39:51;2.80;;;2.20;;
61206;SDS011;47070;49.212;8.084;2022-08-19T17:43:52;2.70;;;2.50;;
61206;SDS011;47070;49.212;8.084;2022-08-19T17:47:53;2.53;;;2.33;;
61206;SDS011;47070;49.212;8.084;2022-08-19T17:51:54;2.55;;;2.17;;
61206;SDS011;47070;49.212;8.084;2022-08-19T17:55:55;2.25;;;2.08;;
61206;SDS011;47070;49.212;8.084;2022-08-19T17:59:55;1.92;;;1.83;;
61206;SDS011;47070;49.212;8.084;2022-08-19T18:03:57;2.70;;;2.45;;
61206;SDS011;47070;49.212;8.084;2022-08-19T18:07:58;2.72;;;2.53;;
61206;SDS011;47070;49.212;8.084;2022-08-19T18:11:59;2.50;;;2.30;;
61206;SDS011;47070;49.212;8.084;2022-08-19T18:16:01;2.45;;;2.05;;
61206;SDS011;47070;49.212;8.084;2022-08-19T18:20:04;4.28;;;2.47;;
61206;SDS011;47070;49.212;8.084;2022-08-19T18:24:06;2.50;;;2.30;;
61206;SDS011;47070;49.212;8.084;2022-08-19T18:28:07;2.78;;;2.05;;
61206;SDS011;47070;49.212;8.084;2022-08-19T18:32:08;4.45;;;2.53;;
61206;SDS011;47070;49.212;8.084;2022-08-19T18:36:11;2.22;;;2.03;;
61206;SDS011;47070;49.212;8.084;2022-08-19T18:40:13;2.55;;;2.33;;
61206;SDS011;47070;49.212;8.084;2022-08-19T18:44:35;2.92;;;2.22;;
61206;SDS011;47070;49.212;8.084;2022-08-19T18:48:55;2.70;;;2.30;;
61206;SDS011;47070;49.212;8.084;2022-08-19T18:53:05;3.15;;;2.85;;
61206;SDS011;47070;49.212;8.084;2022-08-19T18:57:05;5.38;;;2.80;;
61206;SDS011;47070;49.212;8.084;2022-08-19T19:01:10;2.92;;;2.45;;
61206;SDS011;47070;49.212;8.084;2022-08-19T19:05:13;4.05;;;3.22;;
61206;SDS011;47070;49.212;8.084;2022-08-19T19:09:16;4.95;;;2.63;;
61206;SDS011;47070;49.212;8.084;2022-08-19T19:13:18;2.85;;;2.35;;
61206;SDS011;47070;49.212;8.084;2022-08-19T19:17:19;5.07;;;3.33;;
61206;SDS011;47070;49.212;8.084;2022-08-19T19:21:27;5.30;;;4.80;;
61206;SDS011;47070;49.212;8.084;2022-08-19T19:25:27;8.00;;;7.20;;
61206;SDS011;47070;49.212;8.084;2022-08-19T19:29:28;8.77;;;7.53;;
61206;SDS011;47070;49.212;8.084;2022-08-19T19:33:28;8.63;;;7.03;;
61206;SDS011;47070;49.212;8.084;2022-08-19T19:37:29;5.90;;;5.40;;
61206;SDS011;47070;49.212;8.084;2022-08-19T19:41:29;6.03;;;4.07;;
61206;SDS011;47070;49.212;8.084;2022-08-19T19:45:32;3.75;;;3.28;;
61206;SDS011;47070;49.212;8.084;2022-08-19T19:49:32;4.57;;;3.03;;
61206;SDS011;47070;49.212;8.084;2022-08-19T19:53:33;3.00;;;2.03;;
61206;SDS011;47070;49.212;8.084;2022-08-19T19:57:33;2.10;;;1.90;;
61206;SDS011;47070;49.212;8.084;2022-08-19T20:01:34;2.50;;;2.10;;
61206;SDS011;47070;49.212;8.084;2022-08-19T20:05:35;1.83;;;1.70;;
61206;SDS011;47070;49.212;8.084;2022-08-19T20:09:35;2.20;;;2.00;;
61206;SDS011;47070;49.212;8.084;2022-08-19T20:13:36;1.88;;;1.77;;
61206;SDS011;47070;49.212;8.084;2022-08-19T20:17:39;2.08;;;1.80;;
61206;SDS011;47070;49.212;8.084;2022-08-19T20:21:41;1.90;;;1.80;;
61206;SDS011;47070;49.212;8.084;2022-08-19T20:25:44;2.47;;;1.92;;
61206;SDS011;47070;49.212;8.084;2022-08-19T20:29:45;1.55;;;1.45;;
61206;SDS011;47070;49.212;8.084;2022-08-19T20:33:45;2.05;;;1.85;;
61206;SDS011;47070;49.212;8.084;2022-08-19T20:37:47;1.77;;;1.48;;
61206;SDS011;47070;49.212;8.084;2022-08-19T20:41:48;2.08;;;1.88;;
61206;SDS011;47070;49.212;8.084;2022-08-19T20:45:48;2.05;;;1.50;;
61206;SDS011;47070;49.212;8.084;2022-08-19T20:49:49;1.35;;;1.25;;
61206;SDS011;47070;49.212;8.084;2022-08-19T20:53:50;3.47;;;1.30;;
61206;SDS011;47070;49.212;8.084;2022-08-19T20:57:50;1.50;;;1.40;;
61206;SDS011;47070;49.212;8.084;2022-08-19T21:01:51;1.63;;;1.30;;
61206;SDS011;47070;49.212;8.084;2022-08-19T21:05:52;1.00;;;1.00;;
61206;SDS011;47070;49.212;8.084;2022-08-19T21:09:53;0.90;;;0.90;;
61206;SDS011;47070;49.212;8.084;2022-08-19T21:13:54;1.38;;;1.27;;
61206;SDS011;47070;49.212;8.084;2022-08-19T21:17:54;1.13;;;1.02;;
61206;SDS011;47070;49.212;8.084;2022-08-19T21:21:56;1.23;;;1.13;;
61206;SDS011;47070;49.212;8.084;2022-08-19T21:25:58;0.90;;;0.85;;
61206;SDS011;47070;49.212;8.084;2022-08-19T21:30:00;1.40;;;1.30;;
61206;SDS011;47070;49.212;8.084;2022-08-19T21:34:00;0.90;;;0.90;;
61206;SDS011;47070;49.212;8.084;2022-08-19T21:38:01;1.00;;;0.90;;
61206;SDS011;47070;49.212;8.084;2022-08-19T21:42:01;1.63;;;1.10;;
61206;SDS011;47070;49.212;8.084;2022-08-19T21:46:02;0.85;;;0.85;;
61206;SDS011;47070;49.212;8.084;2022-08-19T21:50:04;3.72;;;0.80;;
61206;SDS011;47070;49.212;8.084;2022-08-19T21:54:05;1.40;;;1.00;;
61206;SDS011;47070;49.212;8.084;2022-08-19T21:58:06;0.85;;;0.85;;
61206;SDS011;47070;49.212;8.084;2022-08-19T22:02:06;0.80;;;0.80;;
61206;SDS011;47070;49.212;8.084;2022-08-19T22:06:09;1.08;;;1.00;;
61206;SDS011;47070;49.212;8.084;2022-08-19T22:10:09;0.95;;;0.90;;
61206;SDS011;47070;49.212;8.084;2022-08-19T22:14:10;1.88;;;1.20;;
61206;SDS011;47070;49.212;8.084;2022-08-19T22:18:11;1.30;;;1.20;;
61206;SDS011;47070;49.212;8.084;2022-08-19T22:22:13;1.48;;;1.38;;
61206;SDS011;47070;49.212;8.084;2022-08-19T22:26:23;1.40;;;1.30;;
61206;SDS011;47070;49.212;8.084;2022-08-19T22:30:23;2.35;;;0.95;;
61206;SDS011;47070;49.212;8.084;2022-08-19T22:34:24;1.75;;;1.10;;
61206;SDS011;47070;49.212;8.084;2022-08-19T22:38:25;3.05;;;1.48;;
61206;SDS011;47070;49.212;8.084;2022-08-19T22:42:26;1.60;;;1.10;;
61206;SDS011;47070;49.212;8.084;2022-08-19T22:46:26;0.90;;;0.90;;
61206;SDS011;47070;49.212;8.084;2022-08-19T22:50:27;0.90;;;0.90;;
61206;SDS011;47070;49.212;8.084;2022-08-19T22:54:27;0.77;;;0.73;;
61206;SDS011;47070;49.212;8.084;2022-08-19T22:58:28;0.70;;;0.70;;
61206;SDS011;47070;49.212;8.084;2022-08-19T23:02:30;2.53;;;1.00;;
61206;SDS011;47070;49.212;8.084;2022-08-19T23:06:33;1.15;;;1.00;;
61206;SDS011;47070;49.212;8.084;2022-08-19T23:10:33;0.90;;;0.90;;
61206;SDS011;47070;49.212;8.084;2022-08-19T23:14:34;0.85;;;0.85;;
61206;SDS011;47070;49.212;8.084;2022-08-19T23:18:36;1.13;;;1.05;;
61206;SDS011;47070;49.212;8.084;2022-08-19T23:22:37;1.08;;;0.88;;
61206;SDS011;47070;49.212;8.084;2022-08-19T23:26:40;1.23;;;0.88;;
61206;SDS011;47070;49.212;8.084;2022-08-19T23:31:03;1.05;;;1.00;;
61206;SDS011;47070;49.212;8.084;2022-08-19T23:35:05;2.03;;;1.10;;
61206;SDS011;47070;49.212;8.084;2022-08-19T23:39:06;0.80;;;0.80;;
61206;SDS011;47070;49.212;8.084;2022-08-19T23:43:06;1.52;;;0.80;;
61206;SDS011;47070;49.212;8.084;2022-08-19T23:47:08;1.13;;;0.95;;
61206;SDS011;47070;49.212;8.084;2022-08-19T23:51:09;1.08;;;0.77;;
61206;SDS011;47070;49.212;8.084;2022-08-19T23:55:12;0.82;;;0.82;;
61206;SDS011;47070;49.212;8.084;2022-08-19T23:59:13;1.10;;;1.00;;
